Time,TemperatureF,DewpointF,PressureIn,WindDirection,WindDirectionDegrees,WindSpeedMPH,WindSpeedGustMPH,Humidity,HourlyPrecipIn,Conditions,Clouds,dailyrainin,SoftwareType,DateUTC
2013-08-05 00:01:00,52.3,43.5,29.93,NNE,22,2.0,6.0,72,0.00,,,0.01,meteohub,2013-08-04 23:01:00,
2013-08-05 00:06:00,52.3,43.5,29.93,NNE,22,3.0,6.0,72,0.00,,,0.00,meteohub,2013-08-04 23:06:00,
2013-08-05 00:12:00,52.2,43.7,29.93,North,0,3.0,6.0,73,0.00,,,0.00,meteohub,2013-08-04 23:12:00,
2013-08-05 00:16:00,52.0,43.7,29.93,North,0,4.0,4.0,73,0.00,,,0.00,meteohub,2013-08-04 23:16:00,
2013-08-05 00:22:00,52.0,43.7,29.93,North,0,5.0,5.0,73,0.00,,,0.00,meteohub,2013-08-04 23:22:00,
2013-08-05 00:27:00,51.8,43.9,29.93,North,0,6.0,6.0,74,0.00,,,0.00,meteohub,2013-08-04 23:27:00,
2013-08-05 00:32:00,51.8,44.1,29.93,North,0,8.0,8.0,75,0.00,,,0.00,meteohub,2013-08-04 23:32:00,
2013-08-05 00:37:00,52.0,44.2,29.93,North,0,8.0,8.0,75,0.00,,,0.00,meteohub,2013-08-04 23:37:00,
2013-08-05 00:43:00,52.0,44.2,29.93,North,0,7.0,8.0,75,0.00,,,0.00,meteohub,2013-08-04 23:43:00,
2013-08-05 00:48:00,52.0,44.2,29.93,North,0,8.0,8.0,75,0.00,,,0.00,meteohub,2013-08-04 23:48:00,
2013-08-05 00:53:00,52.0,44.6,29.93,North,0,7.0,9.0,76,0.00,,,0.00,meteohub,2013-08-04 23:53:00,
2013-08-05 00:58:00,52.0,44.6,29.93,North,0,6.0,9.0,76,0.00,,,0.00,meteohub,2013-08-04 23:58:00,
2013-08-05 01:04:00,52.0,44.2,29.93,North,0,4.0,9.0,75,0.00,,,0.00,meteohub,2013-08-05 00:04:00,
2013-08-05 01:09:00,51.8,44.4,29.93,North,0,5.0,9.0,76,0.00,,,0.00,meteohub,2013-08-05 00:09:00,
2013-08-05 01:14:00,51.8,44.4,29.93,NNE,22,4.0,7.0,76,0.00,,,0.00,meteohub,2013-08-05 00:14:00,
2013-08-05 01:19:00,51.8,44.1,29.93,North,0,4.0,6.0,75,0.00,,,0.00,meteohub,2013-08-05 00:19:00,
2013-08-05 01:24:00,51.8,44.1,29.93,North,0,7.0,7.0,75,0.00,,,0.00,meteohub,2013-08-05 00:24:00,
2013-08-05 01:29:00,51.6,44.2,29.90,North,0,7.0,7.0,76,0.00,,,0.00,meteohub,2013-08-05 00:29:00,
2013-08-05 01:35:00,51.6,44.2,29.90,North,0,4.0,7.0,76,0.00,,,0.00,meteohub,2013-08-05 00:35:00,
2013-08-05 01:40:00,51.6,44.2,29.90,North,0,6.0,7.0,76,0.00,,,0.00,meteohub,2013-08-05 00:40:00,
2013-08-05 01:46:00,51.6,44.2,29.90,North,0,6.0,7.0,76,0.00,,,0.00,meteohub,2013-08-05 00:46:00,
2013-08-05 01:51:00,51.6,44.6,29.90,North,0,5.0,6.0,77,0.00,,,0.00,meteohub,2013-08-05 00:51:00,
2013-08-05 01:57:00,51.8,44.8,29.90,North,0,8.0,8.0,77,0.00,,,0.00,meteohub,2013-08-05 00:57:00,
2013-08-05 02:02:00,51.8,45.1,29.90,North,0,7.0,8.0,78,0.00,,,0.00,meteohub,2013-08-05 01:02:00,
2013-08-05 02:07:00,52.0,45.3,29.90,North,0,6.0,8.0,78,0.00,,,0.00,meteohub,2013-08-05 01:07:00,
2013-08-05 02:12:00,52.0,45.3,29.90,North,0,6.0,8.0,78,0.00,,,0.00,meteohub,2013-08-05 01:12:00,
2013-08-05 02:17:00,52.0,45.3,29.90,North,0,5.0,8.0,78,0.00,,,0.00,meteohub,2013-08-05 01:17:00,
2013-08-05 02:23:00,52.0,45.3,29.90,North,0,4.0,6.0,78,0.00,,,0.00,meteohub,2013-08-05 01:23:00,
2013-08-05 02:28:00,52.0,45.3,29.90,North,0,2.0,6.0,78,0.00,,,0.00,meteohub,2013-08-05 01:28:00,
2013-08-05 02:33:00,51.8,45.1,29.90,North,0,2.0,6.0,78,0.00,,,0.00,meteohub,2013-08-05 01:33:00,
2013-08-05 02:39:00,51.8,45.1,29.90,NNE,22,2.0,6.0,78,0.00,,,0.00,meteohub,2013-08-05 01:39:00,
2013-08-05 02:44:00,51.6,45.0,29.90,NNE,22,0.0,4.0,78,0.00,,,0.00,meteohub,2013-08-05 01:44:00,
2013-08-05 02:49:00,51.4,44.8,29.90,North,0,0.0,3.0,78,0.00,,,0.00,meteohub,2013-08-05 01:49:00,
2013-08-05 02:54:00,51.3,44.6,29.90,North,0,0.0,3.0,78,0.00,,,0.00,meteohub,2013-08-05 01:54:00,
2013-08-05 03:00:00,51.1,44.4,29.90,NW,315,3.0,3.0,78,0.00,,,0.00,meteohub,2013-08-05 02:00:00,
2013-08-05 03:05:00,51.4,45.1,29.90,NW,315,3.0,4.0,79,0.00,,,0.00,meteohub,2013-08-05 02:05:00,
2013-08-05 03:11:00,51.4,45.1,29.90,NNW,338,3.0,4.0,79,0.00,,,0.00,meteohub,2013-08-05 02:11:00,
2013-08-05 03:16:00,51.3,45.3,29.90,NNW,338,2.0,4.0,80,0.00,,,0.00,meteohub,2013-08-05 02:16:00,
2013-08-05 03:21:00,51.3,45.3,29.90,NW,315,3.0,3.0,80,0.00,,,0.00,meteohub,2013-08-05 02:21:00,
2013-08-05 03:27:00,51.4,45.5,29.90,NNW,338,2.0,3.0,80,0.00,,,0.00,meteohub,2013-08-05 02:27:00,
2013-08-05 03:32:00,51.3,45.3,29.90,NNW,338,2.0,3.0,80,0.00,,,0.00,meteohub,2013-08-05 02:32:00,
2013-08-05 03:37:00,51.3,45.3,29.90,WNW,292,1.0,3.0,80,0.00,,,0.00,meteohub,2013-08-05 02:37:00,
2013-08-05 03:42:00,51.4,45.5,29.90,WNW,292,0.0,2.0,80,0.00,,,0.00,meteohub,2013-08-05 02:42:00,
2013-08-05 03:47:00,51.6,45.7,29.87,WNW,292,0.0,2.0,80,0.00,,,0.00,meteohub,2013-08-05 02:47:00,
2013-08-05 03:52:00,51.6,46.0,29.87,NNW,338,0.0,2.0,81,0.00,,,0.00,meteohub,2013-08-05 02:52:00,
2013-08-05 03:57:00,51.4,45.9,29.87,NW,315,2.0,2.0,81,0.00,,,0.00,meteohub,2013-08-05 02:57:00,
2013-08-05 04:03:00,51.4,45.9,29.87,WSW,248,0.0,2.0,81,0.00,,,0.00,meteohub,2013-08-05 03:03:00,
2013-08-05 04:08:00,51.4,46.2,29.87,WSW,248,1.0,2.0,82,0.00,,,0.00,meteohub,2013-08-05 03:08:00,
2013-08-05 04:13:00,51.4,46.2,29.90,WNW,292,3.0,3.0,82,0.00,,,0.00,meteohub,2013-08-05 03:13:00,
2013-08-05 04:19:00,51.8,46.2,29.90,West,270,4.0,4.0,81,0.00,,,0.00,meteohub,2013-08-05 03:19:00,
2013-08-05 04:24:00,52.0,46.4,29.90,West,270,4.0,5.0,81,0.00,,,0.00,meteohub,2013-08-05 03:24:00,
2013-08-05 04:29:00,52.0,46.6,29.87,West,270,2.0,5.0,82,0.00,,,0.00,meteohub,2013-08-05 03:29:00,
2013-08-05 04:34:00,52.0,46.6,29.87,West,270,3.0,5.0,82,0.00,,,0.00,meteohub,2013-08-05 03:34:00,
2013-08-05 04:39:00,52.0,46.6,29.87,West,270,0.0,5.0,82,0.00,,,0.00,meteohub,2013-08-05 03:39:00,
2013-08-05 04:44:00,52.0,46.6,29.87,West,270,0.0,5.0,82,0.00,,,0.00,meteohub,2013-08-05 03:44:00,
2013-08-05 04:49:00,51.8,46.4,29.87,West,270,2.0,3.0,82,0.00,,,0.00,meteohub,2013-08-05 03:49:00,
2013-08-05 04:54:00,51.6,46.6,29.87,West,270,0.0,2.0,83,0.00,,,0.00,meteohub,2013-08-05 03:54:00,
2013-08-05 05:00:00,51.6,46.6,29.87,West,270,0.0,2.0,83,0.00,,,0.00,meteohub,2013-08-05 04:00:00,
2013-08-05 05:01:00,51.6,46.6,29.87,West,270,0.0,2.0,83,0.00,,,0.00,meteohub,2013-08-05 04:01:00,
2013-08-05 05:02:00,51.6,46.6,29.87,West,270,0.0,2.0,83,0.00,,,0.00,meteohub,2013-08-05 04:02:00,
2013-08-05 05:03:00,51.6,46.6,29.87,West,270,0.0,2.0,83,0.00,,,0.00,meteohub,2013-08-05 04:03:00,
2013-08-05 05:08:00,51.4,46.4,29.87,West,270,0.0,2.0,83,0.00,,,0.00,meteohub,2013-08-05 04:08:00,
2013-08-05 05:09:00,51.4,46.4,29.87,West,270,0.0,2.0,83,0.00,,,0.00,meteohub,2013-08-05 04:09:00,
2013-08-05 05:14:00,51.4,46.4,29.87,West,270,0.0,1.0,83,0.00,,,0.00,meteohub,2013-08-05 04:14:00,
2013-08-05 05:19:00,51.3,46.2,29.87,West,270,1.0,1.0,83,0.00,,,0.00,meteohub,2013-08-05 04:19:00,
2013-08-05 05:25:00,51.3,46.2,29.87,West,270,0.0,2.0,83,0.00,,,0.00,meteohub,2013-08-05 04:25:00,
2013-08-05 05:29:00,51.6,46.6,29.87,West,270,0.0,2.0,83,0.00,,,0.00,meteohub,2013-08-05 04:29:00,
2013-08-05 05:35:00,51.6,46.9,29.87,West,270,0.0,1.0,84,0.00,,,0.00,meteohub,2013-08-05 04:35:00,
2013-08-05 05:40:00,51.6,46.9,29.87,West,270,0.0,0.0,84,0.00,,,0.00,meteohub,2013-08-05 04:40:00,
2013-08-05 05:45:00,51.4,46.8,29.87,West,270,0.0,0.0,84,0.00,,,0.00,meteohub,2013-08-05 04:45:00,
2013-08-05 05:50:00,51.6,46.9,29.87,West,270,0.0,0.0,84,0.00,,,0.00,meteohub,2013-08-05 04:50:00,
2013-08-05 05:56:00,51.6,46.9,29.87,West,270,0.0,0.0,84,0.00,,,0.00,meteohub,2013-08-05 04:56:00,
2013-08-05 06:01:00,51.6,46.9,29.87,NE,45,0.0,0.0,84,0.00,,,0.00,meteohub,2013-08-05 05:01:00,
2013-08-05 06:10:00,51.6,46.9,29.87,NNW,338,0.0,0.0,84,0.00,,,0.00,meteohub,2013-08-05 05:10:00,
2013-08-05 06:15:00,51.6,46.9,29.87,NNW,338,0.0,0.0,84,0.00,,,0.00,meteohub,2013-08-05 05:15:00,
2013-08-05 06:20:00,51.6,47.3,29.87,North,0,0.0,0.0,85,0.00,,,0.00,meteohub,2013-08-05 05:20:00,
2013-08-05 06:30:00,52.2,47.8,29.87,NNW,338,3.0,3.0,85,0.00,,,0.00,meteohub,2013-08-05 05:30:00,
2013-08-05 06:35:00,52.2,47.8,29.87,North,0,2.0,3.0,85,0.00,,,0.00,meteohub,2013-08-05 05:35:00,
2013-08-05 06:51:00,52.9,48.7,29.84,North,0,0.0,3.0,86,0.00,,,0.00,meteohub,2013-08-05 05:51:00,
2013-08-05 06:56:00,52.9,49.1,29.84,NNE,22,0.0,2.0,87,0.00,,,0.00,meteohub,2013-08-05 05:56:00,
2013-08-05 07:01:00,52.9,48.7,29.87,East,90,0.0,1.0,86,0.00,,,0.00,meteohub,2013-08-05 06:01:00,
2013-08-05 07:05:00,53.1,48.9,29.87,East,90,0.0,0.0,86,0.00,,,0.00,meteohub,2013-08-05 06:05:00,
2013-08-05 07:14:00,53.4,49.6,29.84,East,90,0.0,0.0,87,0.00,,,0.00,meteohub,2013-08-05 06:14:00,
2013-08-05 07:19:00,53.6,49.8,29.84,NE,45,6.0,0.0,87,0.00,,,0.00,meteohub,2013-08-05 06:19:00,
2013-08-05 07:24:00,53.8,50.0,29.84,NE,45,3.0,6.0,87,0.00,,,0.00,meteohub,2013-08-05 06:24:00,
2013-08-05 07:29:00,54.5,51.1,29.84,NNE,22,1.0,6.0,88,0.00,,,0.00,meteohub,2013-08-05 06:29:00,
2013-08-05 07:35:00,54.9,51.6,29.84,North,0,1.0,6.0,89,0.00,,,0.00,meteohub,2013-08-05 06:35:00,
2013-08-05 07:42:00,55.2,52.0,29.84,NNW,338,0.0,3.0,89,0.00,,,0.00,meteohub,2013-08-05 06:42:00,
2013-08-05 07:47:00,55.2,52.0,29.84,NNW,338,0.0,2.0,89,0.00,,,0.00,meteohub,2013-08-05 06:47:00,
2013-08-05 07:52:00,55.6,52.2,29.84,WNW,292,3.0,3.0,88,0.00,,,0.00,meteohub,2013-08-05 06:52:00,
2013-08-05 07:57:00,55.8,52.3,29.84,WNW,292,3.0,3.0,88,0.00,,,0.00,meteohub,2013-08-05 06:57:00,
2013-08-05 08:02:00,55.8,52.0,29.84,West,270,1.0,3.0,87,0.00,,,0.00,meteohub,2013-08-05 07:02:00,
2013-08-05 08:08:00,55.9,51.8,29.84,West,270,1.0,3.0,86,0.00,,,0.00,meteohub,2013-08-05 07:08:00,
2013-08-05 08:13:00,55.9,52.2,29.84,West,270,5.0,5.0,87,0.00,,,0.00,meteohub,2013-08-05 07:13:00,
2013-08-05 08:17:00,55.9,52.2,29.84,WNW,292,3.0,5.0,87,0.00,,,0.00,meteohub,2013-08-05 07:17:00,
2013-08-05 08:23:00,56.1,52.3,29.84,West,270,0.0,5.0,87,0.00,,,0.00,meteohub,2013-08-05 07:23:00,
2013-08-05 08:28:00,56.3,52.5,29.84,South,180,2.0,5.0,87,0.00,,,0.00,meteohub,2013-08-05 07:28:00,
2013-08-05 08:33:00,56.3,52.5,29.84,SE,135,1.0,4.0,87,0.00,,,0.00,meteohub,2013-08-05 07:33:00,
2013-08-05 08:39:00,56.5,52.7,29.84,SE,135,0.0,3.0,87,0.00,,,0.00,meteohub,2013-08-05 07:39:00,
2013-08-05 08:44:00,56.7,52.9,29.84,SSW,202,0.0,3.0,87,0.00,,,0.00,meteohub,2013-08-05 07:44:00,
2013-08-05 08:49:00,56.8,53.1,29.84,SE,135,4.0,4.0,87,0.00,,,0.00,meteohub,2013-08-05 07:49:00,
2013-08-05 08:54:00,57.0,53.2,29.84,NE,45,2.0,4.0,87,0.00,,,0.00,meteohub,2013-08-05 07:54:00,
2013-08-05 08:59:00,57.4,53.6,29.84,NE,45,4.0,4.0,87,0.00,,,0.00,meteohub,2013-08-05 07:59:00,
2013-08-05 09:04:00,57.6,53.8,29.84,ENE,68,6.0,6.0,87,0.00,,,0.00,meteohub,2013-08-05 08:04:00,
2013-08-05 09:09:00,57.6,53.8,29.84,ENE,68,5.0,6.0,87,0.00,,,0.00,meteohub,2013-08-05 08:09:00,
2013-08-05 09:14:00,57.7,53.6,29.84,NE,45,4.0,6.0,86,0.00,,,0.00,meteohub,2013-08-05 08:14:00,
2013-08-05 09:20:00,57.9,53.8,29.84,NE,45,3.0,6.0,86,0.00,,,0.00,meteohub,2013-08-05 08:20:00,
2013-08-05 09:25:00,58.1,54.0,29.84,NE,45,4.0,5.0,86,0.00,,,0.00,meteohub,2013-08-05 08:25:00,
2013-08-05 09:30:00,58.3,54.1,29.87,NNE,22,6.0,6.0,86,0.00,,,0.00,meteohub,2013-08-05 08:30:00,
2013-08-05 09:35:00,58.1,53.6,29.87,NE,45,2.0,6.0,85,0.00,,,0.00,meteohub,2013-08-05 08:35:00,
2013-08-05 09:40:00,58.3,53.4,29.87,NNE,22,4.0,6.0,84,0.00,,,0.00,meteohub,2013-08-05 08:40:00,
2013-08-05 09:45:00,58.5,53.6,29.84,NNE,22,4.0,6.0,84,0.00,,,0.00,meteohub,2013-08-05 08:45:00,
2013-08-05 09:51:00,58.6,53.8,29.84,NE,45,4.0,6.0,84,0.00,,,0.00,meteohub,2013-08-05 08:51:00,
2013-08-05 09:58:00,58.8,54.0,29.84,NNE,22,2.0,6.0,84,0.00,,,0.00,meteohub,2013-08-05 08:58:00,
2013-08-05 10:03:00,59.0,53.8,29.84,NE,45,4.0,6.0,83,0.00,,,0.00,meteohub,2013-08-05 09:03:00,
2013-08-05 10:08:00,59.2,54.0,29.84,North,0,4.0,5.0,83,0.00,,,0.00,meteohub,2013-08-05 09:08:00,
2013-08-05 10:14:00,59.4,53.8,29.84,North,0,4.0,5.0,82,0.00,,,0.00,meteohub,2013-08-05 09:14:00,
2013-08-05 10:19:00,59.4,53.8,29.84,North,0,3.0,4.0,82,0.00,,,0.00,meteohub,2013-08-05 09:19:00,
2013-08-05 10:24:00,59.5,54.0,29.84,NNE,22,4.0,4.0,82,0.00,,,0.00,meteohub,2013-08-05 09:24:00,
2013-08-05 10:30:00,59.7,54.1,29.84,North,0,2.0,5.0,82,0.00,,,0.00,meteohub,2013-08-05 09:30:00,
2013-08-05 10:35:00,59.9,54.3,29.84,NNE,22,4.0,5.0,82,0.00,,,0.00,meteohub,2013-08-05 09:35:00,
2013-08-05 10:40:00,60.3,54.7,29.84,NNE,22,2.0,5.0,82,0.00,,,0.00,meteohub,2013-08-05 09:40:00,
2013-08-05 10:45:00,60.4,54.5,29.84,NE,45,4.0,5.0,81,0.00,,,0.00,meteohub,2013-08-05 09:45:00,
2013-08-05 10:51:00,60.6,54.7,29.84,North,0,3.0,5.0,81,0.00,,,0.00,meteohub,2013-08-05 09:51:00,
2013-08-05 10:56:00,60.6,54.5,29.84,North,0,1.0,5.0,80,0.00,,,0.00,meteohub,2013-08-05 09:56:00,
2013-08-05 11:02:00,60.6,54.5,29.84,North,0,3.0,5.0,80,0.00,,,0.00,meteohub,2013-08-05 10:02:00,
2013-08-05 11:07:00,60.6,54.1,29.84,North,0,3.0,4.0,79,0.00,,,0.00,meteohub,2013-08-05 10:07:00,
2013-08-05 11:13:00,60.6,54.1,29.84,NE,45,2.0,4.0,79,0.00,,,0.00,meteohub,2013-08-05 10:13:00,
2013-08-05 11:18:00,60.8,54.0,29.84,North,0,3.0,4.0,78,0.00,,,0.00,meteohub,2013-08-05 10:18:00,
2013-08-05 11:23:00,60.8,54.0,29.84,NNE,22,4.0,4.0,78,0.00,,,0.00,meteohub,2013-08-05 10:23:00,
2013-08-05 11:28:00,60.8,54.0,29.84,NNE,22,3.0,4.0,78,0.00,,,0.00,meteohub,2013-08-05 10:28:00,
2013-08-05 11:34:00,60.8,54.0,29.84,NNE,22,1.0,4.0,78,0.00,,,0.00,meteohub,2013-08-05 10:34:00,
2013-08-05 11:39:00,60.8,53.6,29.84,NE,45,0.0,4.0,77,0.00,,,0.00,meteohub,2013-08-05 10:39:00,
2013-08-05 11:44:00,61.0,53.8,29.84,North,0,1.0,3.0,77,0.00,,,0.00,meteohub,2013-08-05 10:44:00,
2013-08-05 11:49:00,61.3,54.1,29.84,NNE,22,0.0,3.0,77,0.00,,,0.00,meteohub,2013-08-05 10:49:00,
2013-08-05 11:54:00,61.3,53.8,29.84,ESE,112,0.0,2.0,76,0.00,,,0.00,meteohub,2013-08-05 10:54:00,
2013-08-05 11:59:00,61.7,54.5,29.84,SE,135,3.0,3.0,77,0.00,,,0.00,meteohub,2013-08-05 10:59:00,
2013-08-05 12:05:00,61.5,54.3,29.84,SSW,202,0.0,4.0,77,0.00,,,0.00,meteohub,2013-08-05 11:05:00,
2013-08-05 12:10:00,61.0,52.0,29.84,WSW,248,4.0,4.0,72,0.00,,,0.00,meteohub,2013-08-05 11:10:00,
2013-08-05 12:15:00,61.0,52.0,29.84,WNW,292,3.0,4.0,72,0.00,,,0.00,meteohub,2013-08-05 11:15:00,
2013-08-05 12:21:00,61.0,52.3,29.84,WSW,248,0.0,4.0,73,0.00,,,0.00,meteohub,2013-08-05 11:21:00,
2013-08-05 12:29:00,61.2,52.5,29.84,SSE,158,1.0,4.0,73,0.00,,,0.00,meteohub,2013-08-05 11:29:00,
2013-08-05 12:36:00,61.5,53.2,29.84,SSE,158,8.0,8.0,74,0.00,,,0.00,meteohub,2013-08-05 11:36:00,
2013-08-05 12:42:00,61.2,52.9,29.84,SSE,158,6.0,8.0,74,0.00,,,0.00,meteohub,2013-08-05 11:42:00,
2013-08-05 12:48:00,61.2,52.9,29.84,South,180,4.0,8.0,74,0.00,,,0.00,meteohub,2013-08-05 11:48:00,
2013-08-05 12:56:00,61.3,53.1,29.84,South,180,3.0,8.0,74,0.00,,,0.00,meteohub,2013-08-05 11:56:00,
2013-08-05 13:01:00,61.3,53.1,29.84,South,180,4.0,6.0,74,0.00,,,0.00,meteohub,2013-08-05 12:01:00,
2013-08-05 13:07:00,61.9,53.6,29.84,South,180,5.0,6.0,74,0.00,,,0.00,meteohub,2013-08-05 12:07:00,
2013-08-05 13:13:00,61.9,53.6,29.84,SSE,158,1.0,6.0,74,0.00,,,0.00,meteohub,2013-08-05 12:13:00,
2013-08-05 13:18:00,62.1,53.2,29.84,SSE,158,3.0,5.0,73,0.00,,,0.00,meteohub,2013-08-05 12:18:00,
2013-08-05 13:23:00,62.2,53.4,29.84,SSE,158,4.0,6.0,73,0.00,,,0.00,meteohub,2013-08-05 12:23:00,
2013-08-05 13:28:00,62.8,53.6,29.84,SSE,158,2.0,6.0,72,0.00,,,0.00,meteohub,2013-08-05 12:28:00,
2013-08-05 13:34:00,63.1,54.0,29.84,South,180,4.0,6.0,72,0.00,,,0.00,meteohub,2013-08-05 12:34:00,
2013-08-05 13:39:00,63.3,54.1,29.84,SE,135,5.0,6.0,72,0.00,,,0.00,meteohub,2013-08-05 12:39:00,
2013-08-05 13:44:00,63.7,54.1,29.81,SSE,158,2.0,6.0,71,0.00,,,0.00,meteohub,2013-08-05 12:44:00,
2013-08-05 13:50:00,64.0,54.5,29.81,ESE,112,4.0,7.0,71,0.00,,,0.00,meteohub,2013-08-05 12:50:00,
2013-08-05 13:56:00,64.2,54.3,29.81,South,180,6.0,7.0,70,0.00,,,0.00,meteohub,2013-08-05 12:56:00,
2013-08-05 14:02:00,64.4,53.6,29.81,SSE,158,6.0,6.0,68,0.00,,,0.00,meteohub,2013-08-05 13:02:00,
2013-08-05 14:09:00,64.8,53.6,29.81,SSE,158,7.0,7.0,67,0.00,,,0.00,meteohub,2013-08-05 13:09:00,
2013-08-05 14:15:00,64.2,50.9,29.81,South,180,1.0,7.0,62,0.00,,,0.00,meteohub,2013-08-05 13:15:00,
2013-08-05 14:20:00,64.0,50.4,29.81,East,90,4.0,7.0,61,0.00,,,0.00,meteohub,2013-08-05 13:20:00,
2013-08-05 14:26:00,64.2,50.9,29.81,South,180,4.0,6.0,62,0.00,,,0.00,meteohub,2013-08-05 13:26:00,
2013-08-05 14:31:00,64.4,50.7,29.81,East,90,3.0,6.0,61,0.00,,,0.00,meteohub,2013-08-05 13:31:00,
2013-08-05 14:36:00,64.8,51.4,29.81,SE,135,4.0,6.0,62,0.00,,,0.00,meteohub,2013-08-05 13:36:00,
2013-08-05 14:41:00,65.1,51.8,29.81,ESE,112,5.0,6.0,62,0.00,,,0.00,meteohub,2013-08-05 13:41:00,
2013-08-05 14:46:00,65.1,51.3,29.84,SSE,158,4.0,6.0,61,0.00,,,0.00,meteohub,2013-08-05 13:46:00,
2013-08-05 14:53:00,65.1,50.9,29.84,ESE,112,6.0,8.0,60,0.00,,,0.00,meteohub,2013-08-05 13:53:00,
2013-08-05 14:58:00,64.8,50.5,29.84,SE,135,6.0,8.0,60,0.00,,,0.00,meteohub,2013-08-05 13:58:00,
2013-08-05 15:03:00,64.2,50.0,29.81,SSE,158,5.0,8.0,60,0.00,,,0.00,meteohub,2013-08-05 14:03:00,
2013-08-05 15:08:00,64.2,50.0,29.81,SE,135,6.0,8.0,60,0.00,,,0.00,meteohub,2013-08-05 14:08:00,
2013-08-05 15:17:00,64.2,50.9,29.84,SE,135,5.0,7.0,62,0.00,,,0.00,meteohub,2013-08-05 14:17:00,
2013-08-05 15:22:00,64.4,51.1,29.84,SSE,158,4.0,8.0,62,0.00,,,0.00,meteohub,2013-08-05 14:22:00,
2013-08-05 15:27:00,64.6,51.8,29.84,SE,135,5.0,8.0,63,0.00,,,0.00,meteohub,2013-08-05 14:27:00,
2013-08-05 15:34:00,64.8,51.4,29.84,SSE,158,6.0,8.0,62,0.00,,,0.00,meteohub,2013-08-05 14:34:00,
2013-08-05 15:39:00,64.6,50.9,29.84,SE,135,7.0,7.0,61,0.00,,,0.00,meteohub,2013-08-05 14:39:00,
2013-08-05 15:44:00,64.8,51.1,29.81,SE,135,5.0,7.0,61,0.00,,,0.00,meteohub,2013-08-05 14:44:00,
2013-08-05 15:49:00,65.5,52.2,29.81,SE,135,4.0,7.0,62,0.00,,,0.00,meteohub,2013-08-05 14:49:00,
2013-08-05 15:55:00,65.5,50.7,29.81,SSE,158,7.0,8.0,59,0.00,,,0.00,meteohub,2013-08-05 14:55:00,
2013-08-05 16:00:00,65.5,50.4,29.84,SE,135,6.0,8.0,58,0.00,,,0.00,meteohub,2013-08-05 15:00:00,
2013-08-05 16:05:00,65.3,49.3,29.84,SE,135,6.0,8.0,56,0.00,,,0.00,meteohub,2013-08-05 15:05:00,
2013-08-05 16:10:00,65.7,49.6,29.84,SE,135,6.0,8.0,56,0.00,,,0.00,meteohub,2013-08-05 15:10:00,
2013-08-05 16:16:00,66.2,50.5,29.81,ESE,112,8.0,8.0,57,0.00,,,0.00,meteohub,2013-08-05 15:16:00,
2013-08-05 16:22:00,66.4,49.3,29.81,SE,135,5.0,8.0,54,0.00,,,0.00,meteohub,2013-08-05 15:22:00,
2013-08-05 16:27:00,66.4,48.7,29.81,SSE,158,6.0,8.0,53,0.00,,,0.00,meteohub,2013-08-05 15:27:00,
2013-08-05 16:32:00,66.7,49.1,29.81,SE,135,6.0,8.0,53,0.00,,,0.00,meteohub,2013-08-05 15:32:00,
2013-08-05 16:37:00,66.6,48.4,29.81,SE,135,6.0,8.0,52,0.00,,,0.00,meteohub,2013-08-05 15:37:00,
2013-08-05 16:44:00,66.6,47.8,29.81,SE,135,5.0,8.0,51,0.00,,,0.00,meteohub,2013-08-05 15:44:00,
2013-08-05 16:50:00,66.7,48.0,29.81,ESE,112,6.0,7.0,51,0.00,,,0.00,meteohub,2013-08-05 15:50:00,
2013-08-05 16:56:00,66.7,48.0,29.81,SE,135,5.0,7.0,51,0.00,,,0.00,meteohub,2013-08-05 15:56:00,
2013-08-05 17:02:00,66.4,47.1,29.81,SE,135,6.0,7.0,50,0.00,,,0.00,meteohub,2013-08-05 16:02:00,
2013-08-05 17:07:00,66.0,46.9,29.81,SE,135,5.0,6.0,50,0.00,,,0.00,meteohub,2013-08-05 16:07:00,
2013-08-05 17:13:00,65.7,46.0,29.81,SE,135,5.0,6.0,49,0.00,,,0.00,meteohub,2013-08-05 16:13:00,
2013-08-05 17:18:00,65.5,45.9,29.81,SSE,158,7.0,7.0,49,0.00,,,0.00,meteohub,2013-08-05 16:18:00,
2013-08-05 17:23:00,65.1,45.5,29.81,SSE,158,5.0,7.0,49,0.00,,,0.00,meteohub,2013-08-05 16:23:00,
2013-08-05 17:29:00,64.8,45.7,29.81,East,90,5.0,7.0,50,0.00,,,0.00,meteohub,2013-08-05 16:29:00,
2013-08-05 17:35:00,64.6,45.5,29.81,ESE,112,4.0,6.0,50,0.00,,,0.00,meteohub,2013-08-05 16:35:00,
2013-08-05 17:40:00,64.4,45.9,29.81,ESE,112,6.0,6.0,51,0.00,,,0.00,meteohub,2013-08-05 16:40:00,
2013-08-05 17:46:00,64.2,45.7,29.81,SE,135,5.0,6.0,51,0.00,,,0.00,meteohub,2013-08-05 16:46:00,
2013-08-05 17:51:00,64.2,45.7,29.81,SE,135,6.0,6.0,51,0.00,,,0.00,meteohub,2013-08-05 16:51:00,
2013-08-05 17:56:00,64.6,46.6,29.81,SSE,158,6.0,6.0,52,0.00,,,0.00,meteohub,2013-08-05 16:56:00,
2013-08-05 18:02:00,64.6,47.1,29.81,SE,135,6.0,7.0,53,0.00,,,0.00,meteohub,2013-08-05 17:02:00,
2013-08-05 18:10:00,64.6,47.1,29.81,SE,135,5.0,7.0,53,0.00,,,0.00,meteohub,2013-08-05 17:10:00,
2013-08-05 18:16:00,64.8,47.3,29.84,SE,135,5.0,6.0,53,0.00,,,0.00,meteohub,2013-08-05 17:16:00,
2013-08-05 18:21:00,64.6,46.6,29.84,SE,135,5.0,6.0,52,0.00,,,0.00,meteohub,2013-08-05 17:21:00,
2013-08-05 18:26:00,64.6,46.6,29.84,SSE,158,5.0,6.0,52,0.00,,,0.00,meteohub,2013-08-05 17:26:00,
2013-08-05 18:32:00,64.4,46.4,29.81,SSE,158,5.0,6.0,52,0.00,,,0.00,meteohub,2013-08-05 17:32:00,
2013-08-05 18:37:00,64.0,46.0,29.81,SSE,158,5.0,7.0,52,0.00,,,0.00,meteohub,2013-08-05 17:37:00,
2013-08-05 18:42:00,63.9,45.9,29.81,South,180,5.0,7.0,52,0.00,,,0.00,meteohub,2013-08-05 17:42:00,
2013-08-05 18:47:00,63.9,45.9,29.81,SSE,158,4.0,7.0,52,0.00,,,0.00,meteohub,2013-08-05 17:47:00,
2013-08-05 18:53:00,63.7,45.7,29.81,South,180,3.0,6.0,52,0.00,,,0.00,meteohub,2013-08-05 17:53:00,
2013-08-05 18:58:00,63.5,46.0,29.81,SSE,158,3.0,5.0,53,0.00,,,0.00,meteohub,2013-08-05 17:58:00,
2013-08-05 19:03:00,63.5,46.0,29.81,East,90,0.0,5.0,53,0.00,,,0.00,meteohub,2013-08-05 18:03:00,
2013-08-05 19:08:00,63.5,46.0,29.81,SSW,202,2.0,5.0,53,0.00,,,0.00,meteohub,2013-08-05 18:08:00,
2013-08-05 19:13:00,63.3,45.0,29.84,SSW,202,2.0,3.0,51,0.00,,,0.00,meteohub,2013-08-05 18:13:00,
2013-08-05 19:18:00,63.3,43.9,29.84,SSW,202,6.0,6.0,49,0.00,,,0.00,meteohub,2013-08-05 18:18:00,
2013-08-05 19:23:00,63.1,42.6,29.84,West,270,5.0,6.0,47,0.00,,,0.00,meteohub,2013-08-05 18:23:00,
2013-08-05 19:29:00,63.0,41.4,29.84,WSW,248,6.0,6.0,45,0.00,,,0.00,meteohub,2013-08-05 18:29:00,
2013-08-05 19:35:00,63.0,40.1,29.84,WSW,248,6.0,10.0,43,0.00,,,0.00,meteohub,2013-08-05 18:35:00,
2013-08-05 19:41:00,63.0,40.1,29.84,West,270,6.0,10.0,43,0.00,,,0.00,meteohub,2013-08-05 18:41:00,
2013-08-05 19:46:00,62.6,37.9,29.84,West,270,6.0,8.0,40,0.00,,,0.00,meteohub,2013-08-05 18:46:00,
2013-08-05 19:52:00,62.6,36.7,29.84,WNW,292,8.0,10.0,38,0.00,,,0.00,meteohub,2013-08-05 18:52:00,
2013-08-05 19:59:00,62.4,37.8,29.84,West,270,5.0,10.0,40,0.00,,,0.00,meteohub,2013-08-05 18:59:00,
2013-08-05 20:05:00,61.9,36.0,29.84,WNW,292,10.0,10.0,38,0.00,,,0.00,meteohub,2013-08-05 19:05:00,
2013-08-05 20:11:00,61.7,35.2,29.84,WNW,292,6.0,13.0,37,0.00,,,0.00,meteohub,2013-08-05 19:11:00,
2013-08-05 20:17:00,61.5,35.1,29.84,West,270,13.0,14.0,37,0.00,,,0.00,meteohub,2013-08-05 19:17:00,
2013-08-05 20:23:00,61.3,34.9,29.84,West,270,13.0,14.0,37,0.00,,,0.00,meteohub,2013-08-05 19:23:00,
2013-08-05 20:28:00,61.2,35.4,29.84,WSW,248,7.0,14.0,38,0.00,,,0.00,meteohub,2013-08-05 19:28:00,
2013-08-05 20:35:00,61.0,35.2,29.84,WSW,248,6.0,14.0,38,0.00,,,0.00,meteohub,2013-08-05 19:35:00,
2013-08-05 20:42:00,61.0,36.0,29.84,West,270,6.0,14.0,39,0.00,,,0.00,meteohub,2013-08-05 19:42:00,
2013-08-05 20:48:00,60.8,36.3,29.84,WSW,248,10.0,11.0,40,0.00,,,0.00,meteohub,2013-08-05 19:48:00,
2013-08-05 20:53:00,60.6,36.9,29.84,WSW,248,8.0,10.0,41,0.00,,,0.00,meteohub,2013-08-05 19:53:00,
2013-08-05 21:02:00,60.3,37.0,29.87,WSW,248,9.0,11.0,42,0.00,,,0.00,meteohub,2013-08-05 20:02:00,
2013-08-05 21:07:00,60.1,36.9,29.87,West,270,5.0,11.0,42,0.00,,,0.00,meteohub,2013-08-05 20:07:00,
2013-08-05 21:13:00,59.9,37.4,29.87,West,270,8.0,12.0,43,0.00,,,0.00,meteohub,2013-08-05 20:13:00,
2013-08-05 21:21:00,59.5,37.6,29.87,West,270,5.0,12.0,44,0.00,,,0.00,meteohub,2013-08-05 20:21:00,
2013-08-05 21:28:00,59.4,38.1,29.87,West,270,6.0,12.0,45,0.00,,,0.00,meteohub,2013-08-05 20:28:00,
2013-08-05 21:34:00,58.8,38.1,29.87,WSW,248,8.0,8.0,46,0.00,,,0.00,meteohub,2013-08-05 20:34:00,
2013-08-05 21:39:00,58.6,38.5,29.87,West,270,7.0,9.0,47,0.00,,,0.00,meteohub,2013-08-05 20:39:00,
2013-08-05 21:47:00,58.1,37.9,29.87,WNW,292,5.0,9.0,47,0.00,,,0.00,meteohub,2013-08-05 20:47:00,
2013-08-05 21:52:00,57.7,37.8,29.87,WNW,292,4.0,8.0,47,0.00,,,0.00,meteohub,2013-08-05 20:52:00,
2013-08-05 21:58:00,57.4,37.9,29.87,West,270,6.0,8.0,48,0.00,,,0.00,meteohub,2013-08-05 20:58:00,
2013-08-05 22:04:00,57.0,38.1,29.87,West,270,8.0,8.0,49,0.00,,,0.00,meteohub,2013-08-05 21:04:00,
2013-08-05 22:09:00,56.8,38.5,29.87,West,270,5.0,9.0,50,0.00,,,0.00,meteohub,2013-08-05 21:09:00,
2013-08-05 22:16:00,56.7,38.3,29.87,West,270,4.0,9.0,50,0.00,,,0.00,meteohub,2013-08-05 21:16:00,
2013-08-05 22:27:00,56.3,37.9,29.87,West,270,3.0,11.0,50,0.00,,,0.00,meteohub,2013-08-05 21:27:00,
2013-08-05 22:32:00,55.6,38.7,29.87,West,270,6.0,11.0,53,0.00,,,0.00,meteohub,2013-08-05 21:32:00,
2013-08-05 22:38:00,55.4,39.0,29.87,West,270,6.0,11.0,54,0.00,,,0.00,meteohub,2013-08-05 21:38:00,
2013-08-05 22:43:00,55.2,40.6,29.90,West,270,6.0,9.0,58,0.00,,,0.00,meteohub,2013-08-05 21:43:00,
2013-08-05 22:49:00,55.2,41.5,29.90,West,270,6.0,10.0,60,0.00,,,0.00,meteohub,2013-08-05 21:49:00,
2013-08-05 22:54:00,55.0,41.9,29.90,WSW,248,9.0,10.0,61,0.00,,,0.00,meteohub,2013-08-05 21:54:00,
2013-08-05 23:00:00,54.9,42.1,29.90,West,270,5.0,10.0,62,0.00,,,0.00,meteohub,2013-08-05 22:00:00,
2013-08-05 23:05:00,54.5,42.6,29.90,WSW,248,8.0,10.0,64,0.00,,,0.00,meteohub,2013-08-05 22:05:00,
2013-08-05 23:11:00,54.3,43.2,29.90,WSW,248,8.0,9.0,66,0.00,,,0.00,meteohub,2013-08-05 22:11:00,
2013-08-05 23:16:00,54.3,44.4,29.90,WNW,292,5.0,8.0,69,0.00,,,0.00,meteohub,2013-08-05 22:16:00,
2013-08-05 23:23:00,54.0,43.7,29.90,West,270,5.0,8.0,68,0.00,,,0.00,meteohub,2013-08-05 22:23:00,
2013-08-05 23:29:00,53.1,43.2,29.90,WNW,292,7.0,8.0,69,0.00,,,0.00,meteohub,2013-08-05 22:29:00,
2013-08-05 23:35:00,52.7,43.2,29.90,WNW,292,6.0,8.0,70,0.00,,,0.00,meteohub,2013-08-05 22:35:00,
2013-08-05 23:40:00,52.5,44.4,29.90,WNW,292,5.0,9.0,74,0.00,,,0.00,meteohub,2013-08-05 22:40:00,
2013-08-05 23:46:00,52.7,45.0,29.90,West,270,6.0,10.0,75,0.00,,,0.00,meteohub,2013-08-05 22:46:00,
2013-08-05 23:53:00,52.3,44.6,29.90,West,270,7.0,10.0,75,0.00,,,0.00,meteohub,2013-08-05 22:53:00,
2013-08-05 23:58:00,51.8,44.1,29.90,WNW,292,6.0,10.0,75,0.00,,,0.00,meteohub,2013-08-05 22:58:00,